Time;durP1;ratioP1;P1;durP2;ratioP2;P2;SDS_P1;SDS_P2;PMS_P1;PMS_P2;Temp;Humidity;BMP_temperature;BMP_pressure;BME280_temperature;BME280_humidity;BME280_pressure;Samples;Min_cycle;Max_cycle;Signal;HPM_P1;HPM_P2
2023/10/21 00:02:22;;;;;;;0.57;0.57;;;;;;;;;;5001758;28;20191;-83
2023/10/21 00:04:49;;;;;;;0.60;0.60;;;;;;;;;;4999725;28;20252;-82
2023/10/21 00:07:15;;;;;;;0.50;0.50;;;;;;;;;;5010568;28;20165;-84
2023/10/21 00:09:43;;;;;;;0.60;0.60;;;;;;;;;;5014083;28;20185;-83
2023/10/21 00:12:09;;;;;;;0.60;0.60;;;;;;;;;;5005700;28;20181;-83
2023/10/21 00:14:35;;;;;;;0.50;0.50;;;;;;;;;;4998170;28;20225;-84
2023/10/21 00:17:01;;;;;;;0.57;0.57;;;;;;;;;;4998437;28;20615;-84
2023/10/21 00:19:27;;;;;;;0.50;0.50;;;;;;;;;;4996237;28;20209;-86
2023/10/21 00:21:53;;;;;;;0.60;0.60;;;;;;;;;;4996667;28;20174;-84
2023/10/21 00:24:19;;;;;;;0.67;0.67;;;;;;;;;;5001942;28;20186;-83
2023/10/21 00:26:47;;;;;;;0.57;0.57;;;;;;;;;;5019431;28;20189;-82
2023/10/21 00:29:14;;;;;;;0.50;0.50;;;;;;;;;;5019716;28;20179;-82
2023/10/21 00:31:43;;;;;;;0.50;0.50;;;;;;;;;;5020520;28;20174;-82
2023/10/21 00:34:09;;;;;;;0.60;0.60;;;;;;;;;;5019432;28;20216;-83
2023/10/21 00:36:35;;;;;;;0.60;0.60;;;;;;;;;;5020389;28;20197;-82
2023/10/21 00:39:01;;;;;;;0.50;0.50;;;;;;;;;;5006784;28;20184;-83
2023/10/21 00:41:27;;;;;;;0.53;0.53;;;;;;;;;;5003427;28;20204;-85
2023/10/21 00:43:53;;;;;;;0.50;0.50;;;;;;;;;;5004016;28;20227;-86
2023/10/21 00:46:20;;;;;;;0.60;0.60;;;;;;;;;;5003398;28;20198;-83
2023/10/21 00:48:46;;;;;;;0.50;0.50;;;;;;;;;;5002808;28;20169;-85
2023/10/21 00:51:12;;;;;;;0.60;0.60;;;;;;;;;;5001706;28;20181;-84
2023/10/21 00:53:39;;;;;;;0.60;0.60;;;;;;;;;;5001153;28;20181;-85
2023/10/21 00:56:08;;;;;;;0.60;0.60;;;;;;;;;;5001400;28;20212;-83
2023/10/21 00:58:35;;;;;;;0.60;0.60;;;;;;;;;;5001952;28;20178;-85
2023/10/21 01:01:02;;;;;;;0.50;0.50;;;;;;;;;;5002387;28;20181;-85
2023/10/21 01:03:28;;;;;;;0.50;0.50;;;;;;;;;;5003052;28;20185;-84
2023/10/21 01:05:54;;;;;;;0.53;0.53;;;;;;;;;;5002509;28;20208;-85
2023/10/21 01:08:20;;;;;;;0.50;0.50;;;;;;;;;;5003575;28;20579;-85
2023/10/21 01:10:46;;;;;;;0.67;0.67;;;;;;;;;;5002041;28;20173;-85
2023/10/21 01:13:12;;;;;;;0.60;0.60;;;;;;;;;;5003160;28;20626;-84
2023/10/21 01:15:39;;;;;;;0.50;0.50;;;;;;;;;;5002368;28;20209;-85
2023/10/21 01:18:06;;;;;;;0.50;0.50;;;;;;;;;;5002159;28;20189;-85
2023/10/21 01:20:32;;;;;;;0.60;0.60;;;;;;;;;;5003264;28;20662;-85
2023/10/21 01:22:59;;;;;;;0.50;0.50;;;;;;;;;;5001984;28;20173;-84
2023/10/21 01:25:26;;;;;;;0.50;0.50;;;;;;;;;;5002299;28;20209;-85
2023/10/21 01:27:53;;;;;;;0.50;0.50;;;;;;;;;;5010194;28;20197;-82
2023/10/21 01:30:20;;;;;;;0.50;0.50;;;;;;;;;;5021089;28;20197;-81
2023/10/21 01:32:47;;;;;;;0.47;0.47;;;;;;;;;;5036093;28;20203;-83
2023/10/21 01:35:13;;;;;;;0.50;0.50;;;;;;;;;;5022062;28;20218;-84
2023/10/21 01:37:39;;;;;;;0.50;0.50;;;;;;;;;;5020870;28;20264;-86
2023/10/21 01:40:06;;;;;;;0.60;0.60;;;;;;;;;;5020772;28;20188;-85
2023/10/21 01:42:34;;;;;;;0.60;0.60;;;;;;;;;;5029040;28;20181;-84
2023/10/21 01:45:00;;;;;;;0.50;0.50;;;;;;;;;;5033886;28;20205;-81
2023/10/21 01:47:29;;;;;;;0.50;0.50;;;;;;;;;;5035251;28;20173;-84
2023/10/21 01:49:57;;;;;;;0.50;0.50;;;;;;;;;;5032818;28;20168;-81
2023/10/21 01:52:24;;;;;;;0.50;0.50;;;;;;;;;;5024390;28;20199;-85
2023/10/21 01:54:55;;;;;;;0.43;0.43;;;;;;;;;;5024167;28;20219;-84
2023/10/21 01:57:21;;;;;;;0.50;0.50;;;;;;;;;;5024918;28;20177;-83
2023/10/21 01:59:47;;;;;;;0.50;0.50;;;;;;;;;;5023152;28;20181;-84
2023/10/21 02:02:13;;;;;;;0.57;0.57;;;;;;;;;;5035256;28;20208;-79
2023/10/21 02:04:39;;;;;;;0.40;0.40;;;;;;;;;;5037929;28;20180;-82
2023/10/21 02:07:05;;;;;;;0.60;0.60;;;;;;;;;;5032814;28;20649;-84
2023/10/21 02:09:31;;;;;;;0.60;0.60;;;;;;;;;;5020211;28;20602;-85
2023/10/21 02:11:57;;;;;;;0.50;0.50;;;;;;;;;;5020165;28;20168;-85
2023/10/21 02:14:23;;;;;;;0.50;0.50;;;;;;;;;;5021144;28;20204;-84
2023/10/21 02:16:52;;;;;;;0.60;0.60;;;;;;;;;;5019298;28;20618;-86
2023/10/21 02:19:19;;;;;;;0.57;0.57;;;;;;;;;;5021780;28;20258;-85
2023/10/21 02:21:45;;;;;;;0.60;0.60;;;;;;;;;;5022491;28;20192;-85
2023/10/21 02:24:10;;;;;;;0.60;0.60;;;;;;;;;;5022311;28;20530;-85
2023/10/21 02:26:36;;;;;;;0.50;0.50;;;;;;;;;;5023091;28;20258;-85
2023/10/21 02:29:03;;;;;;;0.50;0.50;;;;;;;;;;5024241;28;20172;-85
2023/10/21 02:31:29;;;;;;;0.60;0.60;;;;;;;;;;5024008;28;20188;-84
2023/10/21 02:33:55;;;;;;;0.53;0.53;;;;;;;;;;5023482;28;20277;-85
2023/10/21 02:36:21;;;;;;;0.60;0.60;;;;;;;;;;5020175;28;20697;-85
2023/10/21 02:38:47;;;;;;;0.50;0.50;;;;;;;;;;5025810;28;20625;-84
2023/10/21 02:41:14;;;;;;;0.50;0.50;;;;;;;;;;5028632;28;20172;-84
2023/10/21 02:43:39;;;;;;;0.57;0.57;;;;;;;;;;5030026;28;20180;-84
2023/10/21 02:46:12;;;;;;;0.60;0.60;;;;;;;;;;5031683;28;20200;-84
2023/10/21 02:48:39;;;;;;;0.70;0.70;;;;;;;;;;5033649;28;20203;-83
2023/10/21 02:51:15;;;;;;;0.67;0.67;;;;;;;;;;5035255;28;20176;-83
2023/10/21 02:53:42;;;;;;;0.60;0.60;;;;;;;;;;5034736;28;20263;-83
2023/10/21 02:56:08;;;;;;;0.50;0.50;;;;;;;;;;5031776;28;20212;-83
2023/10/21 02:58:35;;;;;;;0.50;0.50;;;;;;;;;;5031112;28;20267;-84
2023/10/21 03:01:05;;;;;;;0.53;0.53;;;;;;;;;;5017189;28;20208;-85
2023/10/21 03:03:31;;;;;;;0.50;0.50;;;;;;;;;;5018771;28;20172;-85
2023/10/21 03:05:58;;;;;;;0.50;0.50;;;;;;;;;;5017080;28;20617;-85
2023/10/21 03:08:24;;;;;;;0.60;0.60;;;;;;;;;;5017658;28;20179;-85
2023/10/21 03:10:50;;;;;;;0.50;0.50;;;;;;;;;;5017363;28;20181;-84
2023/10/21 03:13:16;;;;;;;0.50;0.50;;;;;;;;;;5015509;28;20258;-83
2023/10/21 03:15:42;;;;;;;0.50;0.50;;;;;;;;;;5016581;28;20275;-86
2023/10/21 03:18:08;;;;;;;0.50;0.50;;;;;;;;;;5017060;28;20179;-84
2023/10/21 03:20:35;;;;;;;0.60;0.60;;;;;;;;;;5014194;28;20172;-85
2023/10/21 03:23:03;;;;;;;0.60;0.60;;;;;;;;;;5015090;28;20176;-85
2023/10/21 03:25:29;;;;;;;0.60;0.60;;;;;;;;;;5014148;28;20196;-84
2023/10/21 03:27:55;;;;;;;0.50;0.50;;;;;;;;;;5016595;28;20255;-85
2023/10/21 03:30:21;;;;;;;0.53;0.53;;;;;;;;;;5016997;28;20669;-84
2023/10/21 03:32:47;;;;;;;0.47;0.47;;;;;;;;;;5015187;28;20172;-85
2023/10/21 03:35:13;;;;;;;0.50;0.50;;;;;;;;;;5015210;28;20738;-86
2023/10/21 03:37:39;;;;;;;0.50;0.50;;;;;;;;;;5016625;28;20216;-85
2023/10/21 03:40:10;;;;;;;0.57;0.57;;;;;;;;;;5015656;28;20206;-85
2023/10/21 03:42:36;;;;;;;0.50;0.50;;;;;;;;;;5022433;28;20185;-84
2023/10/21 03:45:02;;;;;;;0.50;0.50;;;;;;;;;;5033653;28;20215;-84
2023/10/21 03:47:28;;;;;;;0.40;0.40;;;;;;;;;;5033033;28;20180;-83
2023/10/21 03:49:54;;;;;;;0.50;0.50;;;;;;;;;;5016393;28;20169;-84
2023/10/21 03:52:21;;;;;;;0.60;0.60;;;;;;;;;;5012261;28;20184;-85
2023/10/21 03:54:47;;;;;;;0.60;0.60;;;;;;;;;;5013064;28;20200;-84
2023/10/21 03:57:13;;;;;;;0.60;0.60;;;;;;;;;;5015834;28;20262;-85
2023/10/21 03:59:39;;;;;;;0.60;0.60;;;;;;;;;;5016991;28;20172;-85
2023/10/21 04:02:05;;;;;;;0.43;0.43;;;;;;;;;;5022700;28;20180;-84
2023/10/21 04:04:31;;;;;;;0.60;0.60;;;;;;;;;;5018473;28;20192;-85
2023/10/21 04:06:57;;;;;;;0.50;0.50;;;;;;;;;;5019034;28;20615;-84
2023/10/21 04:09:25;;;;;;;0.50;0.50;;;;;;;;;;5021815;28;20230;-84
2023/10/21 04:11:51;;;;;;;0.53;0.53;;;;;;;;;;5015991;28;20284;-83
2023/10/21 04:14:17;;;;;;;0.53;0.53;;;;;;;;;;5028588;28;20607;-86
2023/10/21 04:16:44;;;;;;;0.50;0.50;;;;;;;;;;5020948;28;20192;-85
2023/10/21 04:19:10;;;;;;;0.60;0.60;;;;;;;;;;5026424;28;20256;-85
2023/10/21 04:21:36;;;;;;;0.60;0.60;;;;;;;;;;5024723;28;20164;-84
2023/10/21 04:24:03;;;;;;;0.60;0.60;;;;;;;;;;5040397;28;20192;-84
2023/10/21 04:26:29;;;;;;;0.60;0.60;;;;;;;;;;5039778;28;20192;-83
2023/10/21 04:28:55;;;;;;;0.50;0.50;;;;;;;;;;5040531;28;20181;-83
2023/10/21 04:31:21;;;;;;;0.50;0.50;;;;;;;;;;5040188;28;20203;-83
2023/10/21 04:33:47;;;;;;;0.50;0.50;;;;;;;;;;5038869;28;20168;-84
2023/10/21 04:36:18;;;;;;;0.50;0.50;;;;;;;;;;5021615;28;20211;-83
2023/10/21 04:38:45;;;;;;;0.50;0.50;;;;;;;;;;5023110;28;20177;-85
2023/10/21 04:41:11;;;;;;;0.50;0.50;;;;;;;;;;5025368;28;20187;-85
2023/10/21 04:43:39;;;;;;;0.50;0.50;;;;;;;;;;5025891;28;20173;-84
2023/10/21 04:46:05;;;;;;;0.57;0.57;;;;;;;;;;5022343;28;20212;-85
2023/10/21 04:48:31;;;;;;;0.50;0.50;;;;;;;;;;5018568;28;20270;-84
2023/10/21 04:50:57;;;;;;;0.50;0.50;;;;;;;;;;5017434;28;20177;-84
2023/10/21 04:53:24;;;;;;;0.40;0.40;;;;;;;;;;5017055;28;20181;-84
2023/10/21 04:55:50;;;;;;;0.50;0.50;;;;;;;;;;5023337;28;20224;-84
2023/10/21 04:58:17;;;;;;;0.50;0.50;;;;;;;;;;5020874;28;20181;-84
2023/10/21 05:00:43;;;;;;;0.40;0.40;;;;;;;;;;5017348;28;20176;-84
2023/10/21 05:03:09;;;;;;;0.43;0.43;;;;;;;;;;5016950;28;20199;-84
2023/10/21 05:05:37;;;;;;;0.60;0.60;;;;;;;;;;5016468;28;20274;-83
2023/10/21 05:08:03;;;;;;;0.50;0.50;;;;;;;;;;5018077;28;20200;-84
2023/10/21 05:10:29;;;;;;;0.57;0.57;;;;;;;;;;5017690;28;20180;-84
2023/10/21 05:12:55;;;;;;;0.53;0.53;;;;;;;;;;5018366;28;20283;-85
2023/10/21 05:15:23;;;;;;;0.50;0.50;;;;;;;;;;5034891;28;20286;-82
2023/10/21 05:17:49;;;;;;;0.60;0.60;;;;;;;;;;5039407;28;20181;-84
2023/10/21 05:20:15;;;;;;;0.40;0.40;;;;;;;;;;5038748;28;20219;-85
2023/10/21 05:22:41;;;;;;;0.50;0.50;;;;;;;;;;5039741;28;20168;-84
2023/10/21 05:25:09;;;;;;;0.50;0.50;;;;;;;;;;5039663;28;20211;-82
2023/10/21 05:27:35;;;;;;;0.60;0.60;;;;;;;;;;5027702;28;20207;-85
2023/10/21 05:30:01;;;;;;;0.53;0.53;;;;;;;;;;5016718;28;20529;-86
2023/10/21 05:32:27;;;;;;;0.50;0.50;;;;;;;;;;5016578;28;20192;-86
2023/10/21 05:34:53;;;;;;;0.60;0.60;;;;;;;;;;5016484;28;20613;-85
2023/10/21 05:37:19;;;;;;;0.50;0.50;;;;;;;;;;5019841;28;20184;-85
2023/10/21 05:39:45;;;;;;;0.50;0.50;;;;;;;;;;5032462;28;20180;-85
2023/10/21 05:42:11;;;;;;;0.50;0.50;;;;;;;;;;5036382;28;20180;-84
2023/10/21 05:44:37;;;;;;;0.50;0.50;;;;;;;;;;5035534;28;20211;-84
2023/10/21 05:47:03;;;;;;;0.50;0.50;;;;;;;;;;5033057;28;20180;-85
2023/10/21 05:49:29;;;;;;;0.50;0.50;;;;;;;;;;5016501;28;20191;-85
2023/10/21 05:51:56;;;;;;;0.50;0.50;;;;;;;;;;5015960;28;20598;-85
2023/10/21 05:54:23;;;;;;;0.50;0.50;;;;;;;;;;5018397;28;20177;-82
2023/10/21 05:56:49;;;;;;;0.40;0.40;;;;;;;;;;5018523;28;20215;-85
2023/10/21 05:59:15;;;;;;;0.50;0.50;;;;;;;;;;5010934;28;20189;-84
2023/10/21 06:01:41;;;;;;;0.53;0.53;;;;;;;;;;5004167;28;20184;-83
2023/10/21 06:04:07;;;;;;;0.50;0.50;;;;;;;;;;5015695;28;20185;-84
2023/10/21 06:06:33;;;;;;;0.50;0.50;;;;;;;;;;5011778;28;20243;-85
2023/10/21 06:08:59;;;;;;;0.50;0.50;;;;;;;;;;5008377;28;20224;-84
2023/10/21 06:11:25;;;;;;;0.40;0.40;;;;;;;;;;5020988;28;20389;-85
2023/10/21 06:13:51;;;;;;;0.63;0.63;;;;;;;;;;5027644;28;20192;-84
2023/10/21 06:16:18;;;;;;;0.60;0.60;;;;;;;;;;5025241;28;20229;-86
2023/10/21 06:18:45;;;;;;;0.47;0.47;;;;;;;;;;5010319;28;20181;-85
2023/10/21 06:21:11;;;;;;;0.50;0.50;;;;;;;;;;5010196;28;20296;-85
2023/10/21 06:23:38;;;;;;;0.50;0.50;;;;;;;;;;5012867;28;20177;-86
2023/10/21 06:26:12;;;;;;;0.60;0.60;;;;;;;;;;5013485;28;20193;-85
2023/10/21 06:28:39;;;;;;;0.60;0.60;;;;;;;;;;5010690;28;20303;-87
2023/10/21 06:31:05;;;;;;;0.50;0.50;;;;;;;;;;5007585;28;20231;-84
2023/10/21 06:33:35;;;;;;;0.50;0.50;;;;;;;;;;5006493;28;20180;-85
2023/10/21 06:36:01;;;;;;;0.40;0.40;;;;;;;;;;5009599;28;20215;-85
2023/10/21 06:38:30;;;;;;;0.40;0.40;;;;;;;;;;5012076;28;20181;-84
2023/10/21 06:40:56;;;;;;;0.50;0.50;;;;;;;;;;5025102;28;20187;-85
2023/10/21 06:43:23;;;;;;;0.40;0.40;;;;;;;;;;5024742;28;20184;-84
2023/10/21 06:45:49;;;;;;;0.50;0.50;;;;;;;;;;5018401;28;20212;-84
2023/10/21 06:48:17;;;;;;;0.50;0.50;;;;;;;;;;5012880;28;20186;-83
2023/10/21 06:50:42;;;;;;;0.50;0.50;;;;;;;;;;5002043;28;20181;-84
2023/10/21 06:53:10;;;;;;;0.60;0.60;;;;;;;;;;5001694;28;20256;-85
2023/10/21 06:55:43;;;;;;;0.40;0.40;;;;;;;;;;5010445;28;20796;-85
2023/10/21 06:58:09;;;;;;;0.60;0.60;;;;;;;;;;5006167;28;20191;-85
2023/10/21 07:00:35;;;;;;;0.57;0.57;;;;;;;;;;5007374;28;20189;-85
2023/10/21 07:03:01;;;;;;;0.50;0.50;;;;;;;;;;5008955;28;20303;-84
2023/10/21 07:05:29;;;;;;;0.47;0.47;;;;;;;;;;5008975;28;20216;-86
2023/10/21 07:07:55;;;;;;;0.40;0.40;;;;;;;;;;5009642;28;20253;-87
2023/10/21 07:10:23;;;;;;;0.30;0.30;;;;;;;;;;5006603;28;20677;-85
2023/10/21 07:12:49;;;;;;;0.40;0.40;;;;;;;;;;4996632;28;20607;-82
2023/10/21 07:15:15;;;;;;;0.40;0.40;;;;;;;;;;4992741;28;20303;-85
2023/10/21 07:17:42;;;;;;;0.40;0.40;;;;;;;;;;4995110;28;20229;-85
2023/10/21 07:20:08;;;;;;;0.30;0.30;;;;;;;;;;5007026;28;20188;-86
2023/10/21 07:22:35;;;;;;;0.40;0.40;;;;;;;;;;5007274;28;20201;-85
2023/10/21 07:25:02;;;;;;;0.40;0.40;;;;;;;;;;5004056;28;20207;-84
2023/10/21 07:27:28;;;;;;;0.50;0.50;;;;;;;;;;5015883;28;20172;-85
2023/10/21 07:29:57;;;;;;;0.40;0.40;;;;;;;;;;5017863;28;20218;-85
2023/10/21 07:32:23;;;;;;;0.40;0.40;;;;;;;;;;5019872;28;20251;-85
2023/10/21 07:34:49;;;;;;;0.30;0.30;;;;;;;;;;5017238;28;20216;-86
2023/10/21 07:37:15;;;;;;;0.40;0.40;;;;;;;;;;5008184;28;20264;-84
2023/10/21 07:39:42;;;;;;;0.40;0.40;;;;;;;;;;5012132;28;20658;-83
2023/10/21 07:42:08;;;;;;;0.40;0.40;;;;;;;;;;5017061;28;20174;-84
2023/10/21 07:44:34;;;;;;;0.33;0.33;;;;;;;;;;5018631;28;20196;-83
2023/10/21 07:47:00;;;;;;;0.50;0.50;;;;;;;;;;5011901;28;20185;-86
2023/10/21 07:49:26;;;;;;;0.30;0.30;;;;;;;;;;4998370;28;20284;-86
2023/10/21 07:51:52;;;;;;;0.50;0.50;;;;;;;;;;5004625;28;20208;-84
2023/10/21 07:54:18;;;;;;;0.50;0.50;;;;;;;;;;5018247;28;20180;-81
2023/10/21 07:56:47;;;;;;;0.50;0.50;;;;;;;;;;5021638;28;20195;-84
2023/10/21 07:59:13;;;;;;;0.63;0.63;;;;;;;;;;5022392;28;20185;-84
2023/10/21 08:01:39;;;;;;;0.70;0.70;;;;;;;;;;5015195;28;20204;-81
2023/10/21 08:04:05;;;;;;;0.50;0.50;;;;;;;;;;5025254;28;20306;-81
2023/10/21 08:06:31;;;;;;;0.53;0.53;;;;;;;;;;5019973;28;20201;-85
2023/10/21 08:08:57;;;;;;;0.60;0.60;;;;;;;;;;5016785;28;20184;-83
2023/10/21 08:11:23;;;;;;;0.60;0.60;;;;;;;;;;5019393;28;20700;-82
2023/10/21 08:13:50;;;;;;;0.60;0.60;;;;;;;;;;5017983;28;20200;-84
2023/10/21 08:16:16;;;;;;;0.70;0.70;;;;;;;;;;5018906;28;20212;-80
2023/10/21 08:18:43;;;;;;;0.60;0.60;;;;;;;;;;5020474;28;20190;-85
2023/10/21 08:21:09;;;;;;;0.63;0.63;;;;;;;;;;5016914;28;20238;-83
2023/10/21 08:23:35;;;;;;;0.60;0.60;;;;;;;;;;5019033;28;20168;-82
2023/10/21 08:26:01;;;;;;;0.70;0.70;;;;;;;;;;5023471;28;20193;-84
2023/10/21 08:28:27;;;;;;;0.60;0.60;;;;;;;;;;5022269;28;20537;-83
2023/10/21 08:30:53;;;;;;;0.50;0.50;;;;;;;;;;5019586;28;20199;-88
2023/10/21 08:33:19;;;;;;;0.57;0.57;;;;;;;;;;5023176;28;20522;-84
2023/10/21 08:35:46;;;;;;;0.43;0.43;;;;;;;;;;5020734;28;20228;-84
2023/10/21 08:38:13;;;;;;;0.60;0.60;;;;;;;;;;5020949;28;20177;-83
2023/10/21 08:40:41;;;;;;;0.57;0.57;;;;;;;;;;5021126;28;20180;-84
2023/10/21 08:43:10;;;;;;;0.40;0.40;;;;;;;;;;5021795;28;20200;-83
2023/10/21 08:45:36;;;;;;;0.50;0.50;;;;;;;;;;5022588;28;20323;-85
2023/10/21 08:48:03;;;;;;;0.50;0.50;;;;;;;;;;5022352;28;20181;-84
2023/10/21 08:50:30;;;;;;;0.40;0.40;;;;;;;;;;5003951;28;20268;-84
2023/10/21 08:52:58;;;;;;;0.53;0.53;;;;;;;;;;5006331;28;20185;-82
2023/10/21 08:55:24;;;;;;;0.57;0.57;;;;;;;;;;5005815;28;20581;-82
2023/10/21 08:57:50;;;;;;;0.53;0.53;;;;;;;;;;5007761;28;20204;-84
2023/10/21 09:00:17;;;;;;;0.60;0.60;;;;;;;;;;5016978;28;20260;-84
2023/10/21 09:02:43;;;;;;;0.50;0.50;;;;;;;;;;5025973;28;20196;-86
2023/10/21 09:05:13;;;;;;;0.47;0.47;;;;;;;;;;5023285;28;20258;-84
2023/10/21 09:07:44;;;;;;;0.60;0.60;;;;;;;;;;5027081;28;20191;-81
2023/10/21 09:10:11;;;;;;;0.50;0.50;;;;;;;;;;5026345;28;20256;-83
2023/10/21 09:12:38;;;;;;;0.40;0.40;;;;;;;;;;5027824;28;20341;-85
2023/10/21 09:15:05;;;;;;;0.57;0.57;;;;;;;;;;5027063;28;20220;-83
2023/10/21 09:17:45;;;;;;;0.40;0.40;;;;;;;;;;5030299;28;20169;-83
2023/10/21 09:20:13;;;;;;;0.40;0.40;;;;;;;;;;5031439;28;20169;-83
2023/10/21 09:22:41;;;;;;;0.30;0.30;;;;;;;;;;5035717;28;20236;-83
2023/10/21 09:25:08;;;;;;;0.30;0.30;;;;;;;;;;5034960;28;20223;-82
2023/10/21 09:27:38;;;;;;;0.40;0.40;;;;;;;;;;5038161;28;20211;-84
2023/10/21 09:30:04;;;;;;;0.30;0.30;;;;;;;;;;5034649;28;20260;-81
2023/10/21 09:32:30;;;;;;;0.40;0.40;;;;;;;;;;5026870;28;20230;-83
2023/10/21 09:35:16;;;;;;;0.40;0.40;;;;;;;;;;5024407;28;20212;-84
2023/10/21 09:37:42;;;;;;;0.30;0.30;;;;;;;;;;5024932;28;20204;-83
2023/10/21 09:40:09;;;;;;;0.30;0.30;;;;;;;;;;5027545;28;20227;-86
2023/10/21 09:42:42;;;;;;;0.33;0.33;;;;;;;;;;5024523;28;20203;-81
2023/10/21 09:45:09;;;;;;;0.30;0.30;;;;;;;;;;5023678;28;20196;-85
2023/10/21 09:47:37;;;;;;;0.30;0.30;;;;;;;;;;5025074;28;20191;-83
2023/10/21 09:50:05;;;;;;;0.43;0.43;;;;;;;;;;5024035;28;20188;-83
2023/10/21 09:52:36;;;;;;;0.40;0.40;;;;;;;;;;5022708;28;20177;-85
2023/10/21 09:55:07;;;;;;;0.40;0.40;;;;;;;;;;5020029;28;20216;-84
2023/10/21 09:57:33;;;;;;;0.40;0.40;;;;;;;;;;5015309;28;20180;-85
2023/10/21 10:00:00;;;;;;;0.40;0.40;;;;;;;;;;5017907;28;20214;-85
2023/10/21 10:02:26;;;;;;;0.40;0.40;;;;;;;;;;5017566;28;20188;-85
2023/10/21 10:04:53;;;;;;;0.53;0.53;;;;;;;;;;5017518;28;20212;-85
2023/10/21 10:07:20;;;;;;;0.33;0.33;;;;;;;;;;5016018;28;20561;-85
2023/10/21 10:09:46;;;;;;;0.40;0.40;;;;;;;;;;5018705;28;20656;-83
2023/10/21 10:12:18;;;;;;;0.40;0.40;;;;;;;;;;5017253;28;20196;-85
2023/10/21 10:14:45;;;;;;;0.40;0.40;;;;;;;;;;5009250;28;20200;-86
2023/10/21 10:17:13;;;;;;;0.37;0.37;;;;;;;;;;4997392;28;20257;-85
2023/10/21 10:19:43;;;;;;;0.50;0.50;;;;;;;;;;5003339;28;20233;-83
2023/10/21 10:22:29;;;;;;;0.40;0.40;;;;;;;;;;5017405;28;20193;-84
2023/10/21 10:24:56;;;;;;;0.50;0.50;;;;;;;;;;5015972;28;20199;-84
2023/10/21 10:27:35;;;;;;;0.63;0.63;;;;;;;;;;5001573;28;20192;-86
2023/10/21 10:30:01;;;;;;;0.67;0.67;;;;;;;;;;5006721;28;20169;-84
2023/10/21 10:32:30;;;;;;;0.70;0.70;;;;;;;;;;5012739;28;20192;-87
2023/10/21 10:34:57;;;;;;;0.53;0.53;;;;;;;;;;5003451;28;20344;-84
2023/10/21 10:37:34;;;;;;;0.60;0.60;;;;;;;;;;4999109;28;20200;-87
2023/10/21 10:40:05;;;;;;;0.50;0.50;;;;;;;;;;4998782;28;20172;-86
2023/10/21 10:42:34;;;;;;;0.40;0.40;;;;;;;;;;4997762;28;20169;-86
2023/10/21 10:45:00;;;;;;;0.50;0.50;;;;;;;;;;4995515;28;20276;-85
2023/10/21 10:47:29;;;;;;;0.50;0.50;;;;;;;;;;5000027;28;20189;-85
2023/10/21 10:50:00;;;;;;;0.43;0.43;;;;;;;;;;5010236;28;20205;-84
2023/10/21 10:52:32;;;;;;;0.47;0.47;;;;;;;;;;5008196;28;20224;-86
2023/10/21 10:54:59;;;;;;;0.43;0.43;;;;;;;;;;4998322;28;20734;-86
2023/10/21 10:57:25;;;;;;;0.60;0.60;;;;;;;;;;4997294;28;20181;-82
2023/10/21 10:59:52;;;;;;;0.30;0.30;;;;;;;;;;5000696;28;20192;-85
2023/10/21 11:02:19;;;;;;;0.40;0.40;;;;;;;;;;4999501;28;20243;-85
2023/10/21 11:04:49;;;;;;;0.40;0.40;;;;;;;;;;4998893;28;20219;-82
2023/10/21 11:07:15;;;;;;;0.40;0.40;;;;;;;;;;5000703;28;20231;-85
2023/10/21 11:09:41;;;;;;;0.50;0.50;;;;;;;;;;4998374;28;20257;-84
2023/10/21 11:12:07;;;;;;;0.40;0.40;;;;;;;;;;5000829;28;20201;-84
2023/10/21 11:14:33;;;;;;;0.40;0.40;;;;;;;;;;5008758;28;20181;-84
2023/10/21 11:17:02;;;;;;;0.40;0.40;;;;;;;;;;5008932;28;20651;-84
2023/10/21 11:19:28;;;;;;;0.40;0.40;;;;;;;;;;5008366;28;20184;-83
2023/10/21 11:21:55;;;;;;;0.30;0.30;;;;;;;;;;5010175;28;20181;-83
2023/10/21 11:24:22;;;;;;;0.37;0.37;;;;;;;;;;5009035;28;20251;-84
2023/10/21 11:26:49;;;;;;;0.33;0.33;;;;;;;;;;5009946;28;20196;-82
2023/10/21 11:29:15;;;;;;;0.50;0.50;;;;;;;;;;5005800;28;20667;-84
2023/10/21 11:31:43;;;;;;;0.40;0.40;;;;;;;;;;5001148;28;20315;-84
2023/10/21 11:34:12;;;;;;;0.40;0.40;;;;;;;;;;4999391;28;20185;-85
2023/10/21 11:36:38;;;;;;;0.40;0.40;;;;;;;;;;5015620;28;20358;-85
2023/10/21 11:39:13;;;;;;;0.40;0.40;;;;;;;;;;5001411;28;20181;-83
2023/10/21 11:41:49;;;;;;;0.50;0.50;;;;;;;;;;4998193;28;20173;-84
2023/10/21 11:44:17;;;;;;;0.40;0.40;;;;;;;;;;4998434;28;20267;-85
2023/10/21 11:46:43;;;;;;;0.40;0.40;;;;;;;;;;5000171;28;20201;-84
2023/10/21 11:49:13;;;;;;;0.40;0.40;;;;;;;;;;5006547;28;20169;-84
2023/10/21 11:51:46;;;;;;;0.40;0.40;;;;;;;;;;5014392;28;20296;-78
2023/10/21 12:15:49;;;;;;;0.43;0.43;;;;;;;;;;5021971;28;20316;-83
2023/10/21 12:21:14;;;;;;;0.40;0.40;;;;;;;;;;4997383;28;20184;-83
2023/10/21 12:39:57;;;;;;;0.30;0.30;;;;;;;;;;5002535;28;20181;-83
2023/10/21 12:42:35;;;;;;;0.40;0.40;;;;;;;;;;5001916;28;20552;-82
2023/10/21 12:45:08;;;;;;;0.40;0.40;;;;;;;;;;4999543;28;20189;-85
2023/10/21 12:47:34;;;;;;;0.40;0.40;;;;;;;;;;5008239;28;20173;-85
2023/10/21 12:50:00;;;;;;;0.40;0.40;;;;;;;;;;5035793;28;20188;-83
2023/10/21 12:52:29;;;;;;;0.40;0.40;;;;;;;;;;5033309;28;20252;-84
2023/10/21 12:54:55;;;;;;;0.47;0.47;;;;;;;;;;5030605;28;20213;-83
2023/10/21 12:57:21;;;;;;;0.40;0.40;;;;;;;;;;5020760;28;20232;-81
2023/10/21 12:59:47;;;;;;;0.40;0.40;;;;;;;;;;5017486;28;20196;-83
2023/10/21 13:02:13;;;;;;;0.40;0.40;;;;;;;;;;5011468;28;20193;-85
2023/10/21 13:04:42;;;;;;;0.40;0.40;;;;;;;;;;5000075;28;20216;-85
2023/10/21 13:07:08;;;;;;;0.50;0.50;;;;;;;;;;5002809;28;20177;-85
2023/10/21 13:09:35;;;;;;;0.47;0.47;;;;;;;;;;5002744;28;20186;-85
2023/10/21 13:12:09;;;;;;;0.47;0.47;;;;;;;;;;4998578;28;20650;-86
2023/10/21 13:14:35;;;;;;;0.40;0.40;;;;;;;;;;4996797;28;20214;-85
2023/10/21 13:17:01;;;;;;;0.50;0.50;;;;;;;;;;4997330;28;20185;-84
2023/10/21 13:19:29;;;;;;;0.40;0.40;;;;;;;;;;4998152;28;20169;-85
2023/10/21 13:21:55;;;;;;;0.40;0.40;;;;;;;;;;4999172;28;20185;-84
2023/10/21 13:24:21;;;;;;;0.40;0.40;;;;;;;;;;4998748;28;20276;-84
2023/10/21 13:26:47;;;;;;;0.40;0.40;;;;;;;;;;4999676;28;20193;-84
2023/10/21 13:29:13;;;;;;;0.40;0.40;;;;;;;;;;4995845;28;20677;-85
2023/10/21 13:31:39;;;;;;;0.40;0.40;;;;;;;;;;4997060;28;20188;-84
2023/10/21 13:34:06;;;;;;;0.40;0.40;;;;;;;;;;4997781;28;20659;-82
2023/10/21 13:36:33;;;;;;;0.40;0.40;;;;;;;;;;5000237;28;20213;-85
2023/10/21 13:39:00;;;;;;;0.40;0.40;;;;;;;;;;4998398;28;20679;-85
2023/10/21 13:41:26;;;;;;;0.50;0.50;;;;;;;;;;5000361;28;20201;-83
2023/10/21 13:43:53;;;;;;;0.40;0.40;;;;;;;;;;5002101;28;20228;-83
2023/10/21 13:46:19;;;;;;;0.40;0.40;;;;;;;;;;4998734;28;20219;-84
2023/10/21 13:48:45;;;;;;;0.40;0.40;;;;;;;;;;4998500;28;20177;-86
2023/10/21 13:51:11;;;;;;;0.30;0.30;;;;;;;;;;4998602;28;20541;-84
2023/10/21 13:53:37;;;;;;;0.40;0.40;;;;;;;;;;4996555;28;20184;-83
2023/10/21 13:56:06;;;;;;;0.40;0.40;;;;;;;;;;4996526;28;20720;-86
2023/10/21 13:58:32;;;;;;;0.50;0.50;;;;;;;;;;4999004;28;20193;-83
2023/10/21 14:01:01;;;;;;;0.40;0.40;;;;;;;;;;5000174;28;20182;-84
2023/10/21 14:03:28;;;;;;;0.47;0.47;;;;;;;;;;4999241;28;20177;-84
2023/10/21 14:06:19;;;;;;;0.40;0.40;;;;;;;;;;4998794;28;20586;-83
2023/10/21 14:08:41;;;;;;;0.47;0.47;;;;;;;;;;4999541;28;20180;-84
2023/10/21 14:11:08;;;;;;;0.43;0.43;;;;;;;;;;4999027;28;20177;-83
2023/10/21 14:13:34;;;;;;;0.40;0.40;;;;;;;;;;4998812;28;20656;-86
2023/10/21 14:16:08;;;;;;;0.40;0.40;;;;;;;;;;4998374;28;20209;-85
2023/10/21 14:18:34;;;;;;;0.40;0.40;;;;;;;;;;5008065;28;20182;-84
2023/10/21 14:21:00;;;;;;;0.40;0.40;;;;;;;;;;5016719;28;20263;-85
2023/10/21 14:23:27;;;;;;;0.50;0.50;;;;;;;;;;5016544;28;20255;-85
2023/10/21 14:25:54;;;;;;;0.37;0.37;;;;;;;;;;5014001;28;20203;-84
2023/10/21 14:28:20;;;;;;;0.40;0.40;;;;;;;;;;5003094;28;20723;-86
2023/10/21 14:30:48;;;;;;;0.40;0.40;;;;;;;;;;4997080;28;20192;-85
2023/10/21 14:33:15;;;;;;;0.50;0.50;;;;;;;;;;4998201;28;20573;-84
2023/10/21 14:35:42;;;;;;;0.40;0.40;;;;;;;;;;4999946;28;20208;-86
2023/10/21 14:38:08;;;;;;;0.40;0.40;;;;;;;;;;5003937;28;20260;-82
2023/10/21 14:40:35;;;;;;;0.47;0.47;;;;;;;;;;5011846;28;20208;-82
2023/10/21 14:43:01;;;;;;;0.47;0.47;;;;;;;;;;5006281;28;20212;-83
2023/10/21 14:45:27;;;;;;;0.40;0.40;;;;;;;;;;5001705;28;20224;-83
2023/10/21 14:47:53;;;;;;;0.40;0.40;;;;;;;;;;5001235;28;20180;-82
2023/10/21 14:50:19;;;;;;;0.40;0.40;;;;;;;;;;5000660;28;20203;-84
2023/10/21 14:52:45;;;;;;;0.50;0.50;;;;;;;;;;5000744;28;20237;-84
2023/10/21 14:55:11;;;;;;;0.40;0.40;;;;;;;;;;4999130;28;20224;-82
2023/10/21 14:57:37;;;;;;;0.50;0.50;;;;;;;;;;4999625;28;20236;-83
2023/10/21 15:00:08;;;;;;;0.50;0.50;;;;;;;;;;4997531;28;20269;-83
2023/10/21 15:02:36;;;;;;;0.50;0.50;;;;;;;;;;4998082;28;20174;-83
2023/10/21 15:05:03;;;;;;;0.40;0.40;;;;;;;;;;4999002;28;20674;-83
2023/10/21 15:07:29;;;;;;;0.30;0.30;;;;;;;;;;5000543;28;20256;-84
2023/10/21 15:09:55;;;;;;;0.50;0.50;;;;;;;;;;5009895;28;20177;-83
2023/10/21 15:12:21;;;;;;;0.40;0.40;;;;;;;;;;5013606;28;20257;-82
2023/10/21 15:14:47;;;;;;;0.50;0.50;;;;;;;;;;5012663;28;20273;-82
2023/10/21 15:17:13;;;;;;;0.40;0.40;;;;;;;;;;5001050;28;20174;-86
2023/10/21 15:19:39;;;;;;;0.50;0.50;;;;;;;;;;4996595;28;20184;-85
2023/10/21 15:22:05;;;;;;;0.40;0.40;;;;;;;;;;4998668;28;20173;-88
2023/10/21 15:24:31;;;;;;;0.40;0.40;;;;;;;;;;5004758;28;20182;-88